createdAt,value
2023-10-27T00:01:39.378Z,11.80
2023-10-27T00:04:11.431Z,9.40
2023-10-27T00:06:43.402Z,12.60
2023-10-27T00:09:15.220Z,11.00
2023-10-27T00:11:46.990Z,11.80
2023-10-27T00:14:18.796Z,12.10
2023-10-27T00:16:52.158Z,12.00
2023-10-27T00:19:24.010Z,10.70
2023-10-27T00:21:55.829Z,11.00
2023-10-27T00:24:27.674Z,10.50
2023-10-27T00:26:59.461Z,10.30
2023-10-27T00:29:31.289Z,10.60
2023-10-27T00:32:03.129Z,9.70
2023-10-27T00:34:35.025Z,11.90
2023-10-27T00:37:07.287Z,10.10
2023-10-27T00:39:39.986Z,13.00
2023-10-27T00:42:11.941Z,11.50
2023-10-27T00:44:43.985Z,11.40
2023-10-27T00:47:15.827Z,10.70
2023-10-27T00:49:47.838Z,13.90
2023-10-27T00:52:21.955Z,13.60
2023-10-27T00:54:55.235Z,13.50
2023-10-27T00:57:27.648Z,12.80
2023-10-27T01:00:00.036Z,11.00
2023-10-27T01:02:31.937Z,13.40
2023-10-27T01:05:04.068Z,10.20
2023-10-27T01:07:37.069Z,12.30
2023-10-27T01:10:10.380Z,13.10
2023-10-27T01:12:47.090Z,9.70
2023-10-27T01:15:19.481Z,10.30
2023-10-27T01:17:51.362Z,13.20
2023-10-27T01:20:23.342Z,11.90
2023-10-27T01:22:55.238Z,8.90
2023-10-27T01:25:27.068Z,14.60
2023-10-27T01:27:59.149Z,10.70
2023-10-27T01:30:31.004Z,9.90
2023-10-27T01:33:02.940Z,12.30
2023-10-27T01:35:36.198Z,13.40
2023-10-27T01:38:08.011Z,11.10
2023-10-27T01:40:39.881Z,12.40
2023-10-27T01:43:11.853Z,11.80
2023-10-27T01:45:43.664Z,12.30
2023-10-27T01:48:15.485Z,14.00
2023-10-27T01:50:47.270Z,12.80
2023-10-27T01:53:19.094Z,13.40
2023-10-27T01:55:50.901Z,14.50
2023-10-27T01:58:22.746Z,15.60
2023-10-27T02:00:54.611Z,12.30
2023-10-27T02:03:26.422Z,12.60
2023-10-27T02:05:58.291Z,13.20
2023-10-27T02:08:30.210Z,16.70
2023-10-27T02:11:02.428Z,13.70
2023-10-27T02:13:34.358Z,11.20
2023-10-27T02:16:06.658Z,12.30
2023-10-27T02:18:38.543Z,12.20
2023-10-27T02:21:10.361Z,13.00
2023-10-27T02:23:42.175Z,12.30
2023-10-27T02:26:15.011Z,12.70
2023-10-27T02:28:46.893Z,13.80
2023-10-27T02:31:19.386Z,12.70
2023-10-27T02:33:51.444Z,15.60
2023-10-27T02:36:23.264Z,18.20
2023-10-27T02:38:55.050Z,14.70
2023-10-27T02:41:26.892Z,15.40
2023-10-27T02:44:00.425Z,15.80
2023-10-27T02:46:32.666Z,18.40
2023-10-27T02:49:05.286Z,14.60
2023-10-27T02:51:37.173Z,18.40
2023-10-27T02:54:08.995Z,15.70
2023-10-27T02:56:40.766Z,15.80
2023-10-27T02:59:12.569Z,15.70
2023-10-27T03:01:47.238Z,16.30
2023-10-27T03:04:20.560Z,20.40
2023-10-27T03:06:52.476Z,21.40
2023-10-27T03:09:24.247Z,18.70
2023-10-27T03:11:56.173Z,21.70
2023-10-27T03:14:27.973Z,23.00
2023-10-27T03:16:59.713Z,22.40
2023-10-27T03:19:31.852Z,20.90
2023-10-27T03:22:05.797Z,23.60
2023-10-27T03:24:37.652Z,22.50
2023-10-27T03:27:09.685Z,22.20
2023-10-27T03:29:42.385Z,22.40
2023-10-27T03:32:14.306Z,20.90
2023-10-27T03:34:47.352Z,22.70
2023-10-27T03:37:19.438Z,21.50
2023-10-27T03:39:52.289Z,24.20
2023-10-27T03:42:24.626Z,22.40
2023-10-27T03:44:56.496Z,22.50
2023-10-27T03:47:28.307Z,21.40
2023-10-27T03:50:00.336Z,19.60
2023-10-27T03:52:32.252Z,19.90
2023-10-27T03:55:04.339Z,17.00
2023-10-27T03:57:37.790Z,20.80
2023-10-27T04:00:11.295Z,20.10
2023-10-27T04:02:43.206Z,22.80
2023-10-27T04:05:15.239Z,26.10
2023-10-27T04:07:47.074Z,27.40
2023-10-27T04:10:21.057Z,25.70
2023-10-27T04:12:53.686Z,25.10
2023-10-27T04:15:25.465Z,28.50
2023-10-27T04:17:57.643Z,27.70
2023-10-27T04:20:30.988Z,29.00
2023-10-27T04:23:02.885Z,32.80
2023-10-27T04:25:36.513Z,30.10
2023-10-27T04:28:08.560Z,35.40
2023-10-27T04:30:40.399Z,46.00
2023-10-27T04:33:12.593Z,42.90
2023-10-27T04:35:44.545Z,32.50
2023-10-27T04:38:16.360Z,29.80
2023-10-27T04:40:49.939Z,26.20
2023-10-27T04:43:22.546Z,28.50
2023-10-27T04:45:54.498Z,30.50
2023-10-27T04:48:26.802Z,25.40
2023-10-27T04:51:00.064Z,21.30
2023-10-27T04:53:32.241Z,69.20
2023-10-27T04:56:04.222Z,31.10
2023-10-27T04:58:36.184Z,23.90
2023-10-27T05:01:08.197Z,145.30
2023-10-27T05:03:40.072Z,59.40
2023-10-27T05:06:12.424Z,32.20
2023-10-27T05:08:44.213Z,27.00
2023-10-27T05:11:16.147Z,43.40
2023-10-27T05:13:48.320Z,84.70
2023-10-27T05:16:20.395Z,65.20
2023-10-27T05:18:52.375Z,31.10
2023-10-27T05:21:27.916Z,37.40
2023-10-27T05:23:59.794Z,49.40
2023-10-27T05:26:32.077Z,51.80
2023-10-27T05:29:03.906Z,33.10
2023-10-27T05:31:36.061Z,58.10
2023-10-27T05:34:08.112Z,44.80
2023-10-27T05:36:39.974Z,36.50
2023-10-27T05:39:17.414Z,30.70
2023-10-27T05:41:49.959Z,30.90
2023-10-27T05:44:21.828Z,29.30
2023-10-27T05:46:53.782Z,34.70
2023-10-27T05:49:26.374Z,45.30
2023-10-27T05:51:59.274Z,44.80
2023-10-27T05:54:31.202Z,37.30
2023-10-27T05:57:04.196Z,31.20
2023-10-27T05:59:36.034Z,27.80
2023-10-27T06:02:15.200Z,35.90
2023-10-27T06:04:48.081Z,34.70
2023-10-27T06:07:20.129Z,32.00
2023-10-27T06:09:51.973Z,28.70
2023-10-27T06:12:23.736Z,26.40
2023-10-27T06:14:55.799Z,20.70
2023-10-27T06:17:27.854Z,25.70
2023-10-27T06:20:13.221Z,27.20
2023-10-27T06:22:49.280Z,47.20
2023-10-27T06:25:21.348Z,50.10
2023-10-27T06:27:56.804Z,44.50
2023-10-27T06:30:28.809Z,48.40
2023-10-27T06:33:01.284Z,43.60
2023-10-27T06:35:34.006Z,39.00
2023-10-27T06:38:06.061Z,33.00
2023-10-27T06:40:37.897Z,31.90
2023-10-27T06:43:09.928Z,31.50
2023-10-27T06:45:41.799Z,28.80
2023-10-27T06:48:13.742Z,37.00
2023-10-27T06:50:45.901Z,35.30
2023-10-27T06:53:18.047Z,39.40
2023-10-27T06:55:49.840Z,28.60
2023-10-27T06:58:21.757Z,30.30
2023-10-27T07:00:53.686Z,32.90
2023-10-27T07:03:31.694Z,30.00
2023-10-27T07:06:05.552Z,26.80
2023-10-27T07:08:38.931Z,26.30
2023-10-27T07:11:11.118Z,24.70
2023-10-27T07:13:43.501Z,24.10
2023-10-27T07:16:15.430Z,18.10
2023-10-27T07:18:47.528Z,22.60
2023-10-27T07:21:19.372Z,23.80
2023-10-27T07:23:51.573Z,20.70
2023-10-27T07:26:23.376Z,20.90
2023-10-27T07:28:55.199Z,20.10
2023-10-27T07:31:27.196Z,21.40
2023-10-27T07:33:59.795Z,21.40
2023-10-27T07:36:31.710Z,23.40
2023-10-27T07:39:03.731Z,22.60
2023-10-27T07:41:38.602Z,22.60
2023-10-27T07:44:10.633Z,22.00
2023-10-27T07:46:42.474Z,23.60
2023-10-27T07:49:14.459Z,25.00
2023-10-27T07:51:46.305Z,22.90
2023-10-27T07:54:18.167Z,27.10
2023-10-27T07:56:49.981Z,26.50
2023-10-27T07:59:22.108Z,29.50
2023-10-27T08:01:53.990Z,35.40
2023-10-27T08:04:26.349Z,31.30
2023-10-27T08:06:58.354Z,32.10
2023-10-27T08:09:30.918Z,22.60
2023-10-27T08:12:03.512Z,20.20
2023-10-27T08:14:36.237Z,25.40
2023-10-27T08:17:08.133Z,22.50
2023-10-27T08:19:40.954Z,26.50
2023-10-27T08:22:12.873Z,23.00
2023-10-27T08:24:44.920Z,25.90
2023-10-27T08:27:17.058Z,24.50
2023-10-27T08:29:48.976Z,20.50
2023-10-27T08:32:20.841Z,25.20
2023-10-27T08:34:52.687Z,24.50
2023-10-27T08:40:02.299Z,26.90
2023-10-27T08:42:34.726Z,24.30
2023-10-27T08:45:08.194Z,21.50
2023-10-27T08:47:40.173Z,23.10
2023-10-27T08:50:13.321Z,21.80
2023-10-27T08:52:45.836Z,25.20
2023-10-27T08:55:18.435Z,23.70
2023-10-27T08:57:50.300Z,28.70
2023-10-27T09:00:22.159Z,29.20
2023-10-27T09:02:54.078Z,21.80
2023-10-27T09:05:26.467Z,22.00
2023-10-27T09:07:58.432Z,21.40
2023-10-27T09:10:30.428Z,34.30
2023-10-27T09:13:02.647Z,30.70
2023-10-27T09:15:46.736Z,31.50
2023-10-27T09:18:19.862Z,29.80
2023-10-27T09:20:52.970Z,29.50
2023-10-27T09:23:24.843Z,35.40
2023-10-27T09:26:00.462Z,30.20
2023-10-27T09:28:32.500Z,25.50
2023-10-27T09:31:05.137Z,31.40
2023-10-27T09:33:37.365Z,25.00
2023-10-27T09:36:09.605Z,25.20
2023-10-27T09:38:41.464Z,20.70
2023-10-27T09:41:15.962Z,20.60
2023-10-27T09:43:51.607Z,22.40
2023-10-27T09:46:24.339Z,22.40
2023-10-27T09:49:12.618Z,23.50
2023-10-27T09:51:48.930Z,23.50
2023-10-27T09:54:21.040Z,22.50
2023-10-27T09:56:52.960Z,32.30
2023-10-27T09:59:25.178Z,31.50
2023-10-27T10:01:57.671Z,28.90
2023-10-27T10:05:01.051Z,26.10
2023-10-27T10:07:34.745Z,23.10
2023-10-27T10:10:30.482Z,22.30
2023-10-27T10:13:05.028Z,19.60
2023-10-27T10:15:38.037Z,22.10
2023-10-27T10:18:11.012Z,20.20
2023-10-27T10:21:01.311Z,25.80
2023-10-27T10:24:16.496Z,18.80
2023-10-27T10:27:07.297Z,17.30
2023-10-27T10:29:39.218Z,22.30
2023-10-27T10:32:35.353Z,24.20
2023-10-27T10:35:28.268Z,25.50
2023-10-27T10:38:36.950Z,20.30
2023-10-27T10:41:08.796Z,20.30
2023-10-27T10:43:42.226Z,24.20
2023-10-27T10:46:15.410Z,17.60
2023-10-27T10:48:48.509Z,17.80
2023-10-27T10:51:27.449Z,18.10
2023-10-27T10:53:59.559Z,13.60
2023-10-27T10:56:32.027Z,14.60
2023-10-27T10:59:05.244Z,15.50
2023-10-27T11:01:37.104Z,13.60
2023-10-27T11:04:09.296Z,16.10
2023-10-27T11:06:41.142Z,19.00
2023-10-27T11:09:12.967Z,16.20
2023-10-27T11:11:48.309Z,23.50
2023-10-27T11:14:20.426Z,19.20
2023-10-27T11:17:00.317Z,14.10
2023-10-27T11:19:32.178Z,10.80
2023-10-27T11:22:04.012Z,13.70
2023-10-27T11:24:47.011Z,13.10
2023-10-27T11:27:28.199Z,9.80
2023-10-27T11:30:04.539Z,10.50
2023-10-27T11:32:36.360Z,6.90
2023-10-27T11:35:09.113Z,9.40
2023-10-27T11:37:41.156Z,8.60
2023-10-27T11:40:19.590Z,8.00
2023-10-27T11:42:51.432Z,6.60
2023-10-27T11:45:23.229Z,7.80
2023-10-27T11:47:55.231Z,8.60
2023-10-27T11:50:27.258Z,9.30
2023-10-27T11:52:59.354Z,12.40
2023-10-27T11:55:32.254Z,12.30
2023-10-27T11:58:04.665Z,12.60
2023-10-27T12:00:36.483Z,10.40
2023-10-27T12:03:08.312Z,7.90
2023-10-27T12:05:40.347Z,12.20
2023-10-27T12:08:12.240Z,11.70
2023-10-27T12:10:44.471Z,9.50
2023-10-27T12:13:16.417Z,8.70
2023-10-27T12:15:48.926Z,10.90
2023-10-27T12:18:21.885Z,9.90
2023-10-27T12:20:53.806Z,11.00
2023-10-27T12:23:25.691Z,12.30
2023-10-27T12:25:57.695Z,10.70
2023-10-27T12:28:30.212Z,14.80
2023-10-27T12:31:03.341Z,15.50
2023-10-27T12:33:35.278Z,16.80
2023-10-27T12:36:12.007Z,16.30
2023-10-27T12:38:43.945Z,16.90
2023-10-27T12:41:15.704Z,18.90
2023-10-27T12:43:47.734Z,17.70
2023-10-27T12:46:19.590Z,17.70
2023-10-27T12:48:51.708Z,16.80
2023-10-27T12:51:23.868Z,15.60
2023-10-27T12:53:55.692Z,18.90
2023-10-27T12:56:27.554Z,16.10
2023-10-27T12:58:59.432Z,17.80
2023-10-27T13:01:31.296Z,15.90
2023-10-27T13:04:03.529Z,16.10
2023-10-27T13:06:37.616Z,14.40
2023-10-27T13:09:09.413Z,12.80
2023-10-27T13:11:41.277Z,14.80
2023-10-27T13:14:13.105Z,13.90
2023-10-27T13:16:45.089Z,14.20
2023-10-27T13:19:16.973Z,16.70
2023-10-27T13:21:48.865Z,14.90
2023-10-27T13:24:20.692Z,18.40
2023-10-27T13:26:53.964Z,14.40
2023-10-27T13:29:25.831Z,16.90
2023-10-27T13:31:57.772Z,18.40
2023-10-27T13:34:30.890Z,29.10
2023-10-27T13:37:03.234Z,29.00
2023-10-27T13:39:35.428Z,20.30
2023-10-27T13:42:07.815Z,19.10
2023-10-27T13:44:39.624Z,15.00
2023-10-27T13:47:11.964Z,17.80
2023-10-27T13:49:43.835Z,15.00
2023-10-27T13:52:15.775Z,19.70
2023-10-27T13:54:47.608Z,16.10
2023-10-27T13:57:20.876Z,17.90
2023-10-27T13:59:53.289Z,24.50
2023-10-27T14:02:25.462Z,19.50
2023-10-27T14:04:57.540Z,21.10
2023-10-27T14:07:29.515Z,16.90
2023-10-27T14:10:01.414Z,18.60
2023-10-27T14:12:33.279Z,18.00
2023-10-27T14:15:05.760Z,19.60
2023-10-27T14:17:37.569Z,33.70
2023-10-27T14:20:10.919Z,68.30
2023-10-27T14:22:42.756Z,107.30
2023-10-27T14:25:14.707Z,56.60
2023-10-27T14:27:48.787Z,45.30
2023-10-27T14:30:20.900Z,121.60
2023-10-27T14:32:52.782Z,79.00
2023-10-27T14:35:24.699Z,66.20
2023-10-27T14:37:56.970Z,77.40
2023-10-27T14:40:28.856Z,46.20
2023-10-27T14:43:02.676Z,31.40
2023-10-27T14:45:34.579Z,26.50
2023-10-27T14:48:07.643Z,42.30
2023-10-27T14:50:39.796Z,29.90
2023-10-27T14:53:11.644Z,24.90
2023-10-27T14:55:43.559Z,25.60
2023-10-27T14:58:15.577Z,28.60
2023-10-27T15:00:47.468Z,25.00
2023-10-27T15:03:19.338Z,43.20
2023-10-27T15:05:51.276Z,33.60
2023-10-27T15:08:23.240Z,30.80
2023-10-27T15:10:59.377Z,40.60
2023-10-27T15:13:32.210Z,30.00
2023-10-27T15:16:09.322Z,37.20
2023-10-27T15:18:43.219Z,50.60
2023-10-27T15:21:16.413Z,67.00
2023-10-27T15:23:52.317Z,39.00
2023-10-27T15:26:24.997Z,44.00
2023-10-27T15:28:57.124Z,45.00
2023-10-27T15:31:30.351Z,58.80
2023-10-27T15:34:02.555Z,41.50
2023-10-27T15:36:35.191Z,35.50
2023-10-27T15:39:09.360Z,23.80
2023-10-27T15:41:41.650Z,17.90
2023-10-27T15:44:13.513Z,19.30
2023-10-27T15:46:46.982Z,15.70
2023-10-27T15:49:18.894Z,14.90
2023-10-27T15:51:50.767Z,14.80
2023-10-27T15:54:22.960Z,13.90
2023-10-27T15:56:56.142Z,19.30
2023-10-27T15:59:28.562Z,13.70
2023-10-27T16:02:01.692Z,14.50
2023-10-27T16:04:34.485Z,12.50
2023-10-27T16:07:10.918Z,13.20
2023-10-27T16:09:43.649Z,17.00
2023-10-27T16:12:16.845Z,14.30
2023-10-27T16:14:48.760Z,16.20
2023-10-27T16:17:20.624Z,16.70
2023-10-27T16:19:52.564Z,15.90
2023-10-27T16:22:24.440Z,16.00
2023-10-27T16:24:56.310Z,15.80
2023-10-27T16:27:29.691Z,16.70
2023-10-27T16:30:01.682Z,18.60
2023-10-27T16:32:33.661Z,17.40
2023-10-27T16:35:07.879Z,19.30
2023-10-27T16:37:40.121Z,19.30
2023-10-27T16:40:14.335Z,20.90
2023-10-27T16:42:47.140Z,20.90
2023-10-27T16:45:19.323Z,22.80
2023-10-27T16:47:51.662Z,21.70
2023-10-27T16:50:24.649Z,21.20
2023-10-27T16:52:56.601Z,25.50
2023-10-27T16:55:31.807Z,24.70
2023-10-27T16:58:05.283Z,25.10
2023-10-27T17:00:37.172Z,24.80
2023-10-27T17:03:09.153Z,23.40
2023-10-27T17:05:41.071Z,20.30
2023-10-27T17:08:13.361Z,17.80
2023-10-27T17:10:45.325Z,19.80
2023-10-27T17:13:17.589Z,17.60
2023-10-27T17:15:49.464Z,20.00
2023-10-27T17:18:21.324Z,21.90
2023-10-27T17:20:53.528Z,16.00
2023-10-27T17:23:25.566Z,17.80
2023-10-27T17:26:00.494Z,14.00
2023-10-27T17:28:32.648Z,18.30
2023-10-27T17:31:05.085Z,19.40
2023-10-27T17:33:39.357Z,16.70
2023-10-27T17:36:15.414Z,19.90
2023-10-27T17:38:47.353Z,20.10
2023-10-27T17:41:19.642Z,21.80
2023-10-27T17:43:52.065Z,18.70
2023-10-27T17:46:24.177Z,19.70
2023-10-27T17:48:56.485Z,17.90
2023-10-27T17:51:29.635Z,15.50
2023-10-27T17:54:01.806Z,14.10
2023-10-27T17:56:34.860Z,13.60
2023-10-27T17:59:07.091Z,12.60
2023-10-27T18:01:39.101Z,12.90
2023-10-27T18:04:11.406Z,21.50
2023-10-27T18:06:45.409Z,15.60
2023-10-27T18:09:20.298Z,17.40
2023-10-27T18:11:53.278Z,18.50
2023-10-27T18:14:25.877Z,17.80
2023-10-27T18:16:57.934Z,16.90
2023-10-27T18:19:29.889Z,16.30
2023-10-27T18:22:02.219Z,12.90
2023-10-27T18:24:35.669Z,14.90
2023-10-27T18:27:08.337Z,12.30
2023-10-27T18:29:42.709Z,13.10
2023-10-27T18:32:14.542Z,16.30
2023-10-27T18:34:46.565Z,16.60
2023-10-27T18:37:18.528Z,15.80
2023-10-27T18:39:50.514Z,17.60
2023-10-27T18:42:22.821Z,17.30
2023-10-27T18:44:55.337Z,14.80
2023-10-27T18:47:28.780Z,17.40
2023-10-27T18:50:01.633Z,20.20
2023-10-27T18:52:34.230Z,22.60
2023-10-27T18:55:10.155Z,24.60
2023-10-27T18:57:43.417Z,24.40
2023-10-27T19:00:20.903Z,26.50
2023-10-27T19:02:53.294Z,26.70
2023-10-27T19:05:25.358Z,23.90
2023-10-27T19:07:58.600Z,22.80
2023-10-27T19:10:31.077Z,24.40
2023-10-27T19:13:03.177Z,29.90
2023-10-27T19:15:35.228Z,27.40
2023-10-27T19:18:07.329Z,23.90
2023-10-27T19:20:39.427Z,24.40
2023-10-27T19:23:11.584Z,29.20
2023-10-27T19:25:43.999Z,29.50
2023-10-27T19:28:16.536Z,34.50
2023-10-27T19:30:53.523Z,29.80
2023-10-27T19:35:57.073Z,18.60
2023-10-27T19:38:29.782Z,17.50
2023-10-27T19:41:02.011Z,18.20
2023-10-27T19:43:34.002Z,16.60
2023-10-27T19:46:07.857Z,15.30
2023-10-27T19:48:40.722Z,13.50
2023-10-27T19:51:13.932Z,15.30
2023-10-27T19:53:46.635Z,15.30
2023-10-27T19:56:18.983Z,15.00
2023-10-27T19:58:52.246Z,13.60
2023-10-27T20:01:28.713Z,13.70
2023-10-27T20:04:07.851Z,12.50
2023-10-27T20:06:41.181Z,15.60
2023-10-27T20:09:14.030Z,15.50
2023-10-27T20:11:46.519Z,13.30
2023-10-27T20:14:18.336Z,14.70
2023-10-27T20:16:50.190Z,15.90
2023-10-27T20:19:23.353Z,14.90
2023-10-27T20:21:55.208Z,12.90
2023-10-27T20:24:27.043Z,14.90
2023-10-27T20:26:59.254Z,14.40
2023-10-27T20:29:31.239Z,16.60
2023-10-27T20:32:03.794Z,14.70
2023-10-27T20:34:36.404Z,12.80
2023-10-27T20:37:10.212Z,15.80
2023-10-27T20:39:42.436Z,17.40
2023-10-27T20:42:14.669Z,15.90
2023-10-27T20:44:47.616Z,21.00
2023-10-27T20:47:20.202Z,22.40
2023-10-27T20:49:53.116Z,22.20
2023-10-27T20:52:27.629Z,22.90
2023-10-27T20:55:00.301Z,22.60
2023-10-27T20:57:32.302Z,23.90
2023-10-27T21:00:05.918Z,21.00
2023-10-27T21:02:38.334Z,22.40
2023-10-27T21:05:11.222Z,20.10
2023-10-27T21:07:43.797Z,17.90
2023-10-27T21:10:16.602Z,19.00
2023-10-27T21:12:48.541Z,14.90
2023-10-27T21:15:21.016Z,19.20
2023-10-27T21:17:52.912Z,16.40
2023-10-27T21:20:25.201Z,16.00
2023-10-27T21:22:57.343Z,13.60
2023-10-27T21:25:32.850Z,15.50
2023-10-27T21:28:06.624Z,18.50
2023-10-27T21:30:38.615Z,18.20
2023-10-27T21:33:12.452Z,18.90
2023-10-27T21:35:44.423Z,17.00
2023-10-27T21:38:16.238Z,14.10
2023-10-27T21:40:48.086Z,14.80
2023-10-27T21:43:20.002Z,12.30
2023-10-27T21:45:52.068Z,10.90
2023-10-27T21:48:25.265Z,11.40
2023-10-27T21:51:05.918Z,12.90
2023-10-27T21:53:38.269Z,11.20
2023-10-27T21:56:11.779Z,11.10
2023-10-27T21:58:44.232Z,15.50
2023-10-27T22:01:17.742Z,13.60
2023-10-27T22:03:52.594Z,13.40
2023-10-27T22:06:30.610Z,13.90
2023-10-27T22:09:02.690Z,12.90
2023-10-27T22:11:34.677Z,12.10
2023-10-27T22:14:08.578Z,12.00
2023-10-27T22:16:41.172Z,11.20
2023-10-27T22:19:13.399Z,12.90
2023-10-27T22:21:46.371Z,13.90
2023-10-27T22:24:18.437Z,12.10
2023-10-27T22:26:50.314Z,14.90
2023-10-27T22:29:22.650Z,14.80
2023-10-27T22:31:54.568Z,15.60
2023-10-27T22:34:26.783Z,14.00
2023-10-27T22:36:58.603Z,17.60
2023-10-27T22:39:31.194Z,20.70
2023-10-27T22:42:03.608Z,19.40
2023-10-27T22:44:35.467Z,20.70
2023-10-27T22:47:07.747Z,24.30
2023-10-27T22:49:39.742Z,27.10
2023-10-27T22:52:11.657Z,24.30
2023-10-27T22:54:43.605Z,24.20
2023-10-27T22:57:15.489Z,21.80
2023-10-27T22:59:50.708Z,24.70
2023-10-27T23:02:22.936Z,19.10
2023-10-27T23:04:56.232Z,20.10
2023-10-27T23:07:29.338Z,18.30
2023-10-27T23:10:01.874Z,23.80
2023-10-27T23:12:33.932Z,24.10
2023-10-27T23:15:06.946Z,20.70
2023-10-27T23:17:39.342Z,23.80
2023-10-27T23:20:13.899Z,21.10
2023-10-27T23:22:46.136Z,19.30
2023-10-27T23:25:20.688Z,22.80
2023-10-27T23:27:52.661Z,21.40
2023-10-27T23:30:24.533Z,13.70
2023-10-27T23:32:56.571Z,15.30
2023-10-27T23:35:28.931Z,19.40
2023-10-27T23:38:01.095Z,18.00
2023-10-27T23:40:33.222Z,16.80
2023-10-27T23:43:06.321Z,15.60
2023-10-27T23:45:38.231Z,17.00
2023-10-27T23:48:10.373Z,17.80
2023-10-27T23:50:42.368Z,17.00
2023-10-27T23:53:14.364Z,14.10
2023-10-27T23:55:46.741Z,14.70
2023-10-27T23:58:18.763Z,12.80
